sensor_id;sensor_type;location;lat;lon;timestamp;P1;durP1;ratioP1;P2;durP2;ratioP2
5428;SDS011;2737;52.386;9.980;2023-02-22T00:00:53;32.27;;;15.13;;
5428;SDS011;2737;52.386;9.980;2023-02-22T00:03:24;36.67;;;16.07;;
5428;SDS011;2737;52.386;9.980;2023-02-22T00:05:53;32.70;;;15.10;;
5428;SDS011;2737;52.386;9.980;2023-02-22T00:08:23;39.57;;;16.83;;
5428;SDS011;2737;52.386;9.980;2023-02-22T00:10:54;35.17;;;15.57;;
5428;SDS011;2737;52.386;9.980;2023-02-22T00:13:23;36.37;;;14.73;;
5428;SDS011;2737;52.386;9.980;2023-02-22T00:15:53;37.23;;;15.83;;
5428;SDS011;2737;52.386;9.980;2023-02-22T00:18:20;40.87;;;17.47;;
5428;SDS011;2737;52.386;9.980;2023-02-22T00:20:47;38.20;;;16.83;;
5428;SDS011;2737;52.386;9.980;2023-02-22T00:23:15;36.60;;;17.03;;
5428;SDS011;2737;52.386;9.980;2023-02-22T00:25:44;42.63;;;16.70;;
5428;SDS011;2737;52.386;9.980;2023-02-22T00:28:11;39.23;;;15.83;;
5428;SDS011;2737;52.386;9.980;2023-02-22T00:30:42;36.60;;;16.17;;
5428;SDS011;2737;52.386;9.980;2023-02-22T00:33:10;42.83;;;16.80;;
5428;SDS011;2737;52.386;9.980;2023-02-22T00:35:37;39.90;;;16.60;;
5428;SDS011;2737;52.386;9.980;2023-02-22T00:38:05;39.87;;;16.07;;
5428;SDS011;2737;52.386;9.980;2023-02-22T00:40:33;40.90;;;17.20;;
5428;SDS011;2737;52.386;9.980;2023-02-22T00:43:01;37.17;;;16.77;;
5428;SDS011;2737;52.386;9.980;2023-02-22T00:45:30;43.53;;;18.13;;
5428;SDS011;2737;52.386;9.980;2023-02-22T00:48:01;44.63;;;17.03;;
5428;SDS011;2737;52.386;9.980;2023-02-22T00:50:29;44.63;;;17.10;;
5428;SDS011;2737;52.386;9.980;2023-02-22T00:52:58;39.10;;;16.00;;
5428;SDS011;2737;52.386;9.980;2023-02-22T00:55:28;47.20;;;19.07;;
5428;SDS011;2737;52.386;9.980;2023-02-22T00:57:57;45.27;;;17.43;;
5428;SDS011;2737;52.386;9.980;2023-02-22T01:00:26;47.37;;;17.53;;
5428;SDS011;2737;52.386;9.980;2023-02-22T01:02:55;38.90;;;15.70;;
5428;SDS011;2737;52.386;9.980;2023-02-22T01:05:25;52.73;;;18.03;;
5428;SDS011;2737;52.386;9.980;2023-02-22T01:07:54;41.10;;;16.07;;
5428;SDS011;2737;52.386;9.980;2023-02-22T01:10:22;43.47;;;17.40;;
5428;SDS011;2737;52.386;9.980;2023-02-22T01:12:51;37.90;;;16.60;;
5428;SDS011;2737;52.386;9.980;2023-02-22T01:15:19;40.70;;;16.30;;
5428;SDS011;2737;52.386;9.980;2023-02-22T01:17:47;35.80;;;15.83;;
5428;SDS011;2737;52.386;9.980;2023-02-22T01:20:15;37.20;;;15.87;;
5428;SDS011;2737;52.386;9.980;2023-02-22T01:22:45;42.20;;;16.97;;
5428;SDS011;2737;52.386;9.980;2023-02-22T01:25:14;41.57;;;17.60;;
5428;SDS011;2737;52.386;9.980;2023-02-22T01:27:44;40.93;;;16.30;;
5428;SDS011;2737;52.386;9.980;2023-02-22T01:30:12;41.40;;;16.60;;
5428;SDS011;2737;52.386;9.980;2023-02-22T01:32:40;43.40;;;15.97;;
5428;SDS011;2737;52.386;9.980;2023-02-22T01:35:08;39.30;;;15.07;;
5428;SDS011;2737;52.386;9.980;2023-02-22T01:37:37;36.07;;;15.90;;
5428;SDS011;2737;52.386;9.980;2023-02-22T01:40:08;36.10;;;14.80;;
5428;SDS011;2737;52.386;9.980;2023-02-22T01:42:42;43.77;;;15.93;;
5428;SDS011;2737;52.386;9.980;2023-02-22T01:48:10;36.90;;;16.33;;
5428;SDS011;2737;52.386;9.980;2023-02-22T01:50:41;37.93;;;16.03;;
5428;SDS011;2737;52.386;9.980;2023-02-22T01:53:12;37.87;;;15.63;;
5428;SDS011;2737;52.386;9.980;2023-02-22T01:55:42;38.30;;;14.57;;
5428;SDS011;2737;52.386;9.980;2023-02-22T01:58:11;38.27;;;14.97;;
5428;SDS011;2737;52.386;9.980;2023-02-22T02:00:40;39.10;;;16.10;;
5428;SDS011;2737;52.386;9.980;2023-02-22T02:03:10;34.23;;;14.57;;
5428;SDS011;2737;52.386;9.980;2023-02-22T02:05:40;32.87;;;13.40;;
5428;SDS011;2737;52.386;9.980;2023-02-22T02:08:09;42.23;;;16.87;;
5428;SDS011;2737;52.386;9.980;2023-02-22T02:10:43;38.33;;;15.50;;
5428;SDS011;2737;52.386;9.980;2023-02-22T02:13:10;36.97;;;14.40;;
5428;SDS011;2737;52.386;9.980;2023-02-22T02:15:40;38.67;;;15.47;;
5428;SDS011;2737;52.386;9.980;2023-02-22T02:18:08;30.33;;;13.90;;
5428;SDS011;2737;52.386;9.980;2023-02-22T02:20:38;36.23;;;15.47;;
5428;SDS011;2737;52.386;9.980;2023-02-22T02:23:23;37.93;;;14.87;;
5428;SDS011;2737;52.386;9.980;2023-02-22T02:26:13;37.33;;;15.47;;
5428;SDS011;2737;52.386;9.980;2023-02-22T02:32:19;35.67;;;14.90;;
5428;SDS011;2737;52.386;9.980;2023-02-22T02:34:53;35.63;;;14.90;;
5428;SDS011;2737;52.386;9.980;2023-02-22T02:37:31;35.70;;;14.43;;
5428;SDS011;2737;52.386;9.980;2023-02-22T02:40:05;33.03;;;14.90;;
5428;SDS011;2737;52.386;9.980;2023-02-22T02:42:37;38.27;;;14.53;;
5428;SDS011;2737;52.386;9.980;2023-02-22T02:45:08;35.90;;;15.90;;
5428;SDS011;2737;52.386;9.980;2023-02-22T02:47:40;34.10;;;13.80;;
5428;SDS011;2737;52.386;9.980;2023-02-22T02:50:13;28.40;;;13.10;;
5428;SDS011;2737;52.386;9.980;2023-02-22T02:52:45;29.60;;;12.40;;
5428;SDS011;2737;52.386;9.980;2023-02-22T02:55:32;35.87;;;14.23;;
5428;SDS011;2737;52.386;9.980;2023-02-22T02:58:01;38.50;;;13.43;;
5428;SDS011;2737;52.386;9.980;2023-02-22T03:00:31;36.90;;;14.70;;
5428;SDS011;2737;52.386;9.980;2023-02-22T03:03:10;36.57;;;13.50;;
5428;SDS011;2737;52.386;9.980;2023-02-22T03:06:05;34.00;;;13.20;;
5428;SDS011;2737;52.386;9.980;2023-02-22T03:08:48;30.50;;;12.60;;
5428;SDS011;2737;52.386;9.980;2023-02-22T03:11:22;36.33;;;13.97;;
5428;SDS011;2737;52.386;9.980;2023-02-22T03:14:00;34.67;;;13.27;;
5428;SDS011;2737;52.386;9.980;2023-02-22T03:16:37;38.40;;;15.03;;
5428;SDS011;2737;52.386;9.980;2023-02-22T03:19:14;37.77;;;13.73;;
5428;SDS011;2737;52.386;9.980;2023-02-22T03:21:48;34.37;;;14.07;;
5428;SDS011;2737;52.386;9.980;2023-02-22T03:24:21;38.70;;;15.37;;
5428;SDS011;2737;52.386;9.980;2023-02-22T03:26:55;34.13;;;14.53;;
5428;SDS011;2737;52.386;9.980;2023-02-22T03:29:27;33.47;;;13.00;;
5428;SDS011;2737;52.386;9.980;2023-02-22T03:32:00;29.80;;;13.30;;
5428;SDS011;2737;52.386;9.980;2023-02-22T03:34:34;32.60;;;14.27;;
5428;SDS011;2737;52.386;9.980;2023-02-22T03:37:07;36.07;;;13.10;;
5428;SDS011;2737;52.386;9.980;2023-02-22T03:39:39;33.23;;;13.07;;
5428;SDS011;2737;52.386;9.980;2023-02-22T03:42:09;34.80;;;12.20;;
5428;SDS011;2737;52.386;9.980;2023-02-22T03:44:42;39.60;;;14.67;;
5428;SDS011;2737;52.386;9.980;2023-02-22T03:47:12;31.83;;;12.47;;
5428;SDS011;2737;52.386;9.980;2023-02-22T03:49:45;25.63;;;12.23;;
5428;SDS011;2737;52.386;9.980;2023-02-22T03:52:17;29.33;;;12.10;;
5428;SDS011;2737;52.386;9.980;2023-02-22T03:54:47;31.63;;;11.50;;
5428;SDS011;2737;52.386;9.980;2023-02-22T03:57:19;26.50;;;11.10;;
5428;SDS011;2737;52.386;9.980;2023-02-22T03:59:51;24.57;;;10.90;;
5428;SDS011;2737;52.386;9.980;2023-02-22T04:02:18;28.20;;;11.53;;
5428;SDS011;2737;52.386;9.980;2023-02-22T04:04:49;29.00;;;11.50;;
5428;SDS011;2737;52.386;9.980;2023-02-22T04:07:16;26.57;;;10.63;;
5428;SDS011;2737;52.386;9.980;2023-02-22T04:09:44;24.47;;;9.77;;
5428;SDS011;2737;52.386;9.980;2023-02-22T04:12:11;26.03;;;11.10;;
5428;SDS011;2737;52.386;9.980;2023-02-22T04:14:38;22.10;;;9.63;;
5428;SDS011;2737;52.386;9.980;2023-02-22T04:17:05;26.00;;;10.33;;
5428;SDS011;2737;52.386;9.980;2023-02-22T04:19:32;24.80;;;10.83;;
5428;SDS011;2737;52.386;9.980;2023-02-22T04:22:00;23.40;;;10.07;;
5428;SDS011;2737;52.386;9.980;2023-02-22T04:24:27;23.60;;;10.70;;
5428;SDS011;2737;52.386;9.980;2023-02-22T04:26:55;29.93;;;11.27;;
5428;SDS011;2737;52.386;9.980;2023-02-22T04:29:22;31.57;;;12.13;;
5428;SDS011;2737;52.386;9.980;2023-02-22T04:31:49;28.70;;;11.53;;
5428;SDS011;2737;52.386;9.980;2023-02-22T04:34:16;32.33;;;12.43;;
5428;SDS011;2737;52.386;9.980;2023-02-22T04:36:43;31.10;;;11.00;;
5428;SDS011;2737;52.386;9.980;2023-02-22T04:39:11;27.90;;;11.67;;
5428;SDS011;2737;52.386;9.980;2023-02-22T04:41:39;32.40;;;12.27;;
5428;SDS011;2737;52.386;9.980;2023-02-22T04:44:06;27.87;;;11.93;;
5428;SDS011;2737;52.386;9.980;2023-02-22T04:46:33;32.30;;;12.27;;
5428;SDS011;2737;52.386;9.980;2023-02-22T04:49:00;30.03;;;12.07;;
5428;SDS011;2737;52.386;9.980;2023-02-22T04:51:27;34.60;;;13.00;;
5428;SDS011;2737;52.386;9.980;2023-02-22T04:53:54;30.50;;;12.00;;
5428;SDS011;2737;52.386;9.980;2023-02-22T04:56:23;35.10;;;13.33;;
5428;SDS011;2737;52.386;9.980;2023-02-22T04:58:50;33.30;;;13.53;;
5428;SDS011;2737;52.386;9.980;2023-02-22T05:01:17;40.83;;;13.63;;
5428;SDS011;2737;52.386;9.980;2023-02-22T05:03:44;28.90;;;13.33;;
5428;SDS011;2737;52.386;9.980;2023-02-22T05:06:11;37.87;;;13.80;;
5428;SDS011;2737;52.386;9.980;2023-02-22T05:08:38;32.97;;;13.40;;
5428;SDS011;2737;52.386;9.980;2023-02-22T05:11:05;44.30;;;14.63;;
5428;SDS011;2737;52.386;9.980;2023-02-22T05:13:35;37.90;;;14.97;;
5428;SDS011;2737;52.386;9.980;2023-02-22T05:16:02;42.67;;;15.80;;
5428;SDS011;2737;52.386;9.980;2023-02-22T05:18:29;36.50;;;14.43;;
5428;SDS011;2737;52.386;9.980;2023-02-22T05:20:56;44.47;;;14.47;;
5428;SDS011;2737;52.386;9.980;2023-02-22T05:23:23;42.97;;;15.50;;
5428;SDS011;2737;52.386;9.980;2023-02-22T05:25:51;33.63;;;14.80;;
5428;SDS011;2737;52.386;9.980;2023-02-22T05:28:18;33.87;;;13.30;;
5428;SDS011;2737;52.386;9.980;2023-02-22T05:30:46;39.93;;;14.57;;
5428;SDS011;2737;52.386;9.980;2023-02-22T05:33:13;37.50;;;14.00;;
5428;SDS011;2737;52.386;9.980;2023-02-22T05:35:41;39.20;;;14.97;;
5428;SDS011;2737;52.386;9.980;2023-02-22T05:38:09;43.73;;;15.87;;
5428;SDS011;2737;52.386;9.980;2023-02-22T05:40:39;56.20;;;16.13;;
5428;SDS011;2737;52.386;9.980;2023-02-22T05:43:06;43.33;;;15.13;;
5428;SDS011;2737;52.386;9.980;2023-02-22T05:45:34;45.40;;;15.87;;
5428;SDS011;2737;52.386;9.980;2023-02-22T05:48:02;43.23;;;14.63;;
5428;SDS011;2737;52.386;9.980;2023-02-22T05:50:30;43.90;;;15.07;;
5428;SDS011;2737;52.386;9.980;2023-02-22T05:52:57;42.83;;;14.93;;
5428;SDS011;2737;52.386;9.980;2023-02-22T05:55:25;43.87;;;16.80;;
5428;SDS011;2737;52.386;9.980;2023-02-22T05:57:52;51.97;;;17.70;;
5428;SDS011;2737;52.386;9.980;2023-02-22T06:00:20;52.43;;;16.90;;
5428;SDS011;2737;52.386;9.980;2023-02-22T06:02:53;48.33;;;16.40;;
5428;SDS011;2737;52.386;9.980;2023-02-22T06:05:22;60.63;;;17.47;;
5428;SDS011;2737;52.386;9.980;2023-02-22T06:07:49;42.83;;;16.23;;
5428;SDS011;2737;52.386;9.980;2023-02-22T06:10:17;43.13;;;16.13;;
5428;SDS011;2737;52.386;9.980;2023-02-22T06:12:44;40.17;;;15.03;;
5428;SDS011;2737;52.386;9.980;2023-02-22T06:15:11;42.43;;;16.17;;
5428;SDS011;2737;52.386;9.980;2023-02-22T06:17:39;42.40;;;15.07;;
5428;SDS011;2737;52.386;9.980;2023-02-22T06:20:07;47.20;;;16.27;;
5428;SDS011;2737;52.386;9.980;2023-02-22T06:22:36;47.23;;;16.17;;
5428;SDS011;2737;52.386;9.980;2023-02-22T06:25:05;47.93;;;14.60;;
5428;SDS011;2737;52.386;9.980;2023-02-22T06:27:33;56.80;;;15.00;;
5428;SDS011;2737;52.386;9.980;2023-02-22T06:30:01;47.50;;;16.03;;
5428;SDS011;2737;52.386;9.980;2023-02-22T06:32:28;48.07;;;16.00;;
5428;SDS011;2737;52.386;9.980;2023-02-22T06:34:55;51.60;;;18.60;;
5428;SDS011;2737;52.386;9.980;2023-02-22T06:37:22;52.20;;;17.77;;
5428;SDS011;2737;52.386;9.980;2023-02-22T06:39:50;56.73;;;17.07;;
5428;SDS011;2737;52.386;9.980;2023-02-22T06:42:17;56.63;;;17.90;;
5428;SDS011;2737;52.386;9.980;2023-02-22T06:44:44;66.63;;;18.03;;
5428;SDS011;2737;52.386;9.980;2023-02-22T06:47:12;47.13;;;16.87;;
5428;SDS011;2737;52.386;9.980;2023-02-22T06:49:39;55.50;;;17.17;;
5428;SDS011;2737;52.386;9.980;2023-02-22T06:52:06;45.67;;;14.80;;
5428;SDS011;2737;52.386;9.980;2023-02-22T06:54:35;51.23;;;18.07;;
5428;SDS011;2737;52.386;9.980;2023-02-22T06:57:05;49.13;;;16.80;;
5428;SDS011;2737;52.386;9.980;2023-02-22T06:59:34;53.50;;;16.57;;
5428;SDS011;2737;52.386;9.980;2023-02-22T07:02:01;52.57;;;16.47;;
5428;SDS011;2737;52.386;9.980;2023-02-22T07:04:28;47.80;;;15.07;;
5428;SDS011;2737;52.386;9.980;2023-02-22T07:06:55;44.27;;;15.30;;
5428;SDS011;2737;52.386;9.980;2023-02-22T07:09:22;52.23;;;16.33;;
5428;SDS011;2737;52.386;9.980;2023-02-22T07:11:49;39.50;;;13.10;;
5428;SDS011;2737;52.386;9.980;2023-02-22T07:14:18;44.20;;;15.23;;
5428;SDS011;2737;52.386;9.980;2023-02-22T07:16:45;44.23;;;15.20;;
5428;SDS011;2737;52.386;9.980;2023-02-22T07:19:12;47.07;;;14.93;;
5428;SDS011;2737;52.386;9.980;2023-02-22T07:21:39;43.50;;;14.80;;
5428;SDS011;2737;52.386;9.980;2023-02-22T07:24:06;39.10;;;14.33;;
5428;SDS011;2737;52.386;9.980;2023-02-22T07:26:37;41.10;;;15.10;;
5428;SDS011;2737;52.386;9.980;2023-02-22T07:29:04;35.00;;;15.07;;
5428;SDS011;2737;52.386;9.980;2023-02-22T07:31:35;46.23;;;15.97;;
5428;SDS011;2737;52.386;9.980;2023-02-22T07:34:02;43.00;;;15.47;;
5428;SDS011;2737;52.386;9.980;2023-02-22T07:36:29;38.53;;;14.40;;
5428;SDS011;2737;52.386;9.980;2023-02-22T07:38:56;34.77;;;13.50;;
5428;SDS011;2737;52.386;9.980;2023-02-22T07:41:23;29.80;;;12.33;;
5428;SDS011;2737;52.386;9.980;2023-02-22T07:43:51;39.20;;;13.20;;
5428;SDS011;2737;52.386;9.980;2023-02-22T07:46:18;37.43;;;12.13;;
5428;SDS011;2737;52.386;9.980;2023-02-22T07:48:46;34.87;;;12.43;;
5428;SDS011;2737;52.386;9.980;2023-02-22T07:51:14;32.77;;;11.57;;
5428;SDS011;2737;52.386;9.980;2023-02-22T07:53:42;34.43;;;11.63;;
5428;SDS011;2737;52.386;9.980;2023-02-22T07:56:09;29.80;;;12.27;;
5428;SDS011;2737;52.386;9.980;2023-02-22T07:58:36;31.77;;;10.70;;
5428;SDS011;2737;52.386;9.980;2023-02-22T08:01:03;32.30;;;11.50;;
5428;SDS011;2737;52.386;9.980;2023-02-22T08:03:31;33.47;;;10.97;;
5428;SDS011;2737;52.386;9.980;2023-02-22T08:06:02;28.43;;;10.53;;
5428;SDS011;2737;52.386;9.980;2023-02-22T08:08:32;31.07;;;11.33;;
5428;SDS011;2737;52.386;9.980;2023-02-22T08:10:59;23.33;;;10.03;;
5428;SDS011;2737;52.386;9.980;2023-02-22T08:13:26;28.90;;;10.90;;
5428;SDS011;2737;52.386;9.980;2023-02-22T08:15:55;27.30;;;10.73;;
5428;SDS011;2737;52.386;9.980;2023-02-22T08:18:22;33.67;;;11.10;;
5428;SDS011;2737;52.386;9.980;2023-02-22T08:20:50;28.60;;;10.97;;
5428;SDS011;2737;52.386;9.980;2023-02-22T08:23:22;25.80;;;9.97;;
5428;SDS011;2737;52.386;9.980;2023-02-22T08:25:51;28.90;;;11.90;;
5428;SDS011;2737;52.386;9.980;2023-02-22T08:28:19;23.47;;;8.93;;
5428;SDS011;2737;52.386;9.980;2023-02-22T08:30:47;25.83;;;9.47;;
5428;SDS011;2737;52.386;9.980;2023-02-22T08:33:15;24.57;;;10.13;;
5428;SDS011;2737;52.386;9.980;2023-02-22T08:35:44;26.13;;;10.27;;
5428;SDS011;2737;52.386;9.980;2023-02-22T08:38:17;24.17;;;9.77;;
5428;SDS011;2737;52.386;9.980;2023-02-22T08:40:47;35.70;;;10.80;;
5428;SDS011;2737;52.386;9.980;2023-02-22T08:43:15;21.13;;;9.17;;
5428;SDS011;2737;52.386;9.980;2023-02-22T08:45:43;21.13;;;8.80;;
5428;SDS011;2737;52.386;9.980;2023-02-22T08:48:10;22.50;;;9.27;;
5428;SDS011;2737;52.386;9.980;2023-02-22T08:50:38;17.17;;;8.90;;
5428;SDS011;2737;52.386;9.980;2023-02-22T08:53:07;21.73;;;8.50;;
5428;SDS011;2737;52.386;9.980;2023-02-22T08:55:35;18.93;;;9.30;;
5428;SDS011;2737;52.386;9.980;2023-02-22T08:58:05;17.27;;;8.80;;
5428;SDS011;2737;52.386;9.980;2023-02-22T09:00:34;17.13;;;8.20;;
5428;SDS011;2737;52.386;9.980;2023-02-22T09:03:03;18.90;;;9.20;;
5428;SDS011;2737;52.386;9.980;2023-02-22T09:05:31;20.63;;;8.30;;
5428;SDS011;2737;52.386;9.980;2023-02-22T09:07:59;23.10;;;9.10;;
5428;SDS011;2737;52.386;9.980;2023-02-22T09:10:27;20.93;;;8.63;;
5428;SDS011;2737;52.386;9.980;2023-02-22T09:12:56;20.90;;;9.53;;
5428;SDS011;2737;52.386;9.980;2023-02-22T09:15:26;18.37;;;8.40;;
5428;SDS011;2737;52.386;9.980;2023-02-22T09:17:53;23.40;;;10.03;;
5428;SDS011;2737;52.386;9.980;2023-02-22T09:20:21;17.00;;;8.97;;
5428;SDS011;2737;52.386;9.980;2023-02-22T09:22:49;20.80;;;10.57;;
5428;SDS011;2737;52.386;9.980;2023-02-22T09:25:17;23.07;;;9.87;;
5428;SDS011;2737;52.386;9.980;2023-02-22T09:27:46;20.50;;;9.53;;
5428;SDS011;2737;52.386;9.980;2023-02-22T09:30:18;17.50;;;8.97;;
5428;SDS011;2737;52.386;9.980;2023-02-22T09:32:51;16.50;;;8.73;;
5428;SDS011;2737;52.386;9.980;2023-02-22T09:35:18;20.20;;;8.83;;
5428;SDS011;2737;52.386;9.980;2023-02-22T09:37:51;17.77;;;9.07;;
5428;SDS011;2737;52.386;9.980;2023-02-22T09:40:19;19.30;;;8.50;;
5428;SDS011;2737;52.386;9.980;2023-02-22T09:42:55;22.17;;;8.00;;
5428;SDS011;2737;52.386;9.980;2023-02-22T09:45:31;18.33;;;9.20;;
5428;SDS011;2737;52.386;9.980;2023-02-22T09:48:04;23.57;;;9.40;;
5428;SDS011;2737;52.386;9.980;2023-02-22T09:50:33;21.50;;;10.40;;
5428;SDS011;2737;52.386;9.980;2023-02-22T09:53:04;19.20;;;9.77;;
5428;SDS011;2737;52.386;9.980;2023-02-22T09:55:37;17.57;;;9.17;;
5428;SDS011;2737;52.386;9.980;2023-02-22T09:58:09;21.30;;;9.23;;
5428;SDS011;2737;52.386;9.980;2023-02-22T10:00:44;19.30;;;9.43;;
5428;SDS011;2737;52.386;9.980;2023-02-22T10:03:19;15.87;;;8.80;;
5428;SDS011;2737;52.386;9.980;2023-02-22T10:05:51;17.47;;;9.07;;
5428;SDS011;2737;52.386;9.980;2023-02-22T10:08:21;20.30;;;10.03;;
5428;SDS011;2737;52.386;9.980;2023-02-22T10:10:55;19.33;;;9.50;;
5428;SDS011;2737;52.386;9.980;2023-02-22T10:13:33;17.17;;;9.20;;
5428;SDS011;2737;52.386;9.980;2023-02-22T10:16:10;18.07;;;9.90;;
5428;SDS011;2737;52.386;9.980;2023-02-22T10:18:52;26.87;;;9.77;;
5428;SDS011;2737;52.386;9.980;2023-02-22T10:21:51;18.53;;;8.77;;
5428;SDS011;2737;52.386;9.980;2023-02-22T10:24:37;17.97;;;9.00;;
5428;SDS011;2737;52.386;9.980;2023-02-22T10:27:13;16.13;;;9.07;;
5428;SDS011;2737;52.386;9.980;2023-02-22T10:29:44;20.73;;;9.73;;
5428;SDS011;2737;52.386;9.980;2023-02-22T10:32:14;17.70;;;9.20;;
5428;SDS011;2737;52.386;9.980;2023-02-22T10:34:46;20.70;;;10.13;;
5428;SDS011;2737;52.386;9.980;2023-02-22T10:37:18;19.40;;;9.53;;
5428;SDS011;2737;52.386;9.980;2023-02-22T10:39:50;18.57;;;8.63;;
5428;SDS011;2737;52.386;9.980;2023-02-22T10:42:20;20.13;;;10.20;;
5428;SDS011;2737;52.386;9.980;2023-02-22T10:44:51;19.70;;;9.20;;
5428;SDS011;2737;52.386;9.980;2023-02-22T10:47:18;23.70;;;11.87;;
5428;SDS011;2737;52.386;9.980;2023-02-22T10:49:48;16.67;;;9.80;;
5428;SDS011;2737;52.386;9.980;2023-02-22T10:52:25;20.37;;;10.23;;
5428;SDS011;2737;52.386;9.980;2023-02-22T10:54:54;19.33;;;9.73;;
5428;SDS011;2737;52.386;9.980;2023-02-22T10:57:24;18.27;;;8.23;;
5428;SDS011;2737;52.386;9.980;2023-02-22T10:59:52;16.50;;;9.27;;
5428;SDS011;2737;52.386;9.980;2023-02-22T11:02:23;17.87;;;9.10;;
5428;SDS011;2737;52.386;9.980;2023-02-22T11:04:56;18.67;;;9.63;;
5428;SDS011;2737;52.386;9.980;2023-02-22T11:07:27;22.10;;;10.23;;
5428;SDS011;2737;52.386;9.980;2023-02-22T11:09:56;22.33;;;9.60;;
5428;SDS011;2737;52.386;9.980;2023-02-22T11:12:26;16.43;;;8.00;;
5428;SDS011;2737;52.386;9.980;2023-02-22T11:14:55;19.07;;;9.27;;
5428;SDS011;2737;52.386;9.980;2023-02-22T11:17:25;18.63;;;9.10;;
5428;SDS011;2737;52.386;9.980;2023-02-22T11:19:57;16.40;;;8.43;;
5428;SDS011;2737;52.386;9.980;2023-02-22T11:22:25;19.20;;;9.10;;
5428;SDS011;2737;52.386;9.980;2023-02-22T11:24:56;19.03;;;9.10;;
5428;SDS011;2737;52.386;9.980;2023-02-22T11:27:27;23.70;;;9.10;;
5428;SDS011;2737;52.386;9.980;2023-02-22T11:30:09;15.27;;;7.90;;
5428;SDS011;2737;52.386;9.980;2023-02-22T11:32:45;16.23;;;8.23;;
5428;SDS011;2737;52.386;9.980;2023-02-22T11:35:21;18.83;;;8.50;;
5428;SDS011;2737;52.386;9.980;2023-02-22T11:38:09;14.87;;;7.50;;
5428;SDS011;2737;52.386;9.980;2023-02-22T11:40:41;13.20;;;7.70;;
5428;SDS011;2737;52.386;9.980;2023-02-22T11:43:09;13.87;;;8.03;;
5428;SDS011;2737;52.386;9.980;2023-02-22T11:45:54;14.00;;;7.70;;
5428;SDS011;2737;52.386;9.980;2023-02-22T11:48:27;13.80;;;7.63;;
5428;SDS011;2737;52.386;9.980;2023-02-22T11:51:04;17.83;;;8.33;;
5428;SDS011;2737;52.386;9.980;2023-02-22T11:53:43;15.00;;;7.07;;
5428;SDS011;2737;52.386;9.980;2023-02-22T11:56:24;13.10;;;7.70;;
5428;SDS011;2737;52.386;9.980;2023-02-22T11:58:56;14.83;;;7.93;;
5428;SDS011;2737;52.386;9.980;2023-02-22T12:01:30;12.60;;;7.10;;
5428;SDS011;2737;52.386;9.980;2023-02-22T12:04:22;14.27;;;7.13;;
5428;SDS011;2737;52.386;9.980;2023-02-22T12:07:11;16.63;;;7.77;;
5428;SDS011;2737;52.386;9.980;2023-02-22T12:09:53;14.77;;;7.47;;
5428;SDS011;2737;52.386;9.980;2023-02-22T12:12:28;12.60;;;7.00;;
5428;SDS011;2737;52.386;9.980;2023-02-22T12:15:02;14.80;;;7.57;;
5428;SDS011;2737;52.386;9.980;2023-02-22T12:17:49;15.10;;;8.10;;
5428;SDS011;2737;52.386;9.980;2023-02-22T12:20:20;12.43;;;7.03;;
5428;SDS011;2737;52.386;9.980;2023-02-22T12:22:58;11.00;;;6.50;;
5428;SDS011;2737;52.386;9.980;2023-02-22T12:25:32;15.60;;;7.10;;
5428;SDS011;2737;52.386;9.980;2023-02-22T12:28:06;14.10;;;7.10;;
5428;SDS011;2737;52.386;9.980;2023-02-22T12:30:42;17.23;;;8.13;;
5428;SDS011;2737;52.386;9.980;2023-02-22T12:33:13;13.03;;;6.30;;
5428;SDS011;2737;52.386;9.980;2023-02-22T12:35:49;15.47;;;8.33;;
5428;SDS011;2737;52.386;9.980;2023-02-22T12:38:21;18.70;;;7.60;;
5428;SDS011;2737;52.386;9.980;2023-02-22T12:40:56;15.03;;;7.40;;
5428;SDS011;2737;52.386;9.980;2023-02-22T12:43:28;13.97;;;7.43;;
5428;SDS011;2737;52.386;9.980;2023-02-22T12:46:01;13.70;;;7.97;;
5428;SDS011;2737;52.386;9.980;2023-02-22T12:48:37;11.20;;;7.10;;
5428;SDS011;2737;52.386;9.980;2023-02-22T12:51:21;9.83;;;6.80;;
5428;SDS011;2737;52.386;9.980;2023-02-22T12:53:57;17.77;;;8.03;;
5428;SDS011;2737;52.386;9.980;2023-02-22T12:56:37;13.33;;;7.77;;
5428;SDS011;2737;52.386;9.980;2023-02-22T12:59:10;15.97;;;7.90;;
5428;SDS011;2737;52.386;9.980;2023-02-22T13:01:44;14.10;;;7.37;;
5428;SDS011;2737;52.386;9.980;2023-02-22T13:04:15;15.37;;;7.47;;
5428;SDS011;2737;52.386;9.980;2023-02-22T13:06:45;14.30;;;7.47;;
5428;SDS011;2737;52.386;9.980;2023-02-22T13:12:23;14.13;;;6.83;;
5428;SDS011;2737;52.386;9.980;2023-02-22T13:14:58;13.13;;;7.17;;
5428;SDS011;2737;52.386;9.980;2023-02-22T13:17:34;11.23;;;6.13;;
5428;SDS011;2737;52.386;9.980;2023-02-22T13:20:11;12.17;;;6.73;;
5428;SDS011;2737;52.386;9.980;2023-02-22T13:22:44;12.83;;;6.80;;
5428;SDS011;2737;52.386;9.980;2023-02-22T13:25:19;12.43;;;6.30;;
5428;SDS011;2737;52.386;9.980;2023-02-22T13:27:50;15.27;;;7.67;;
5428;SDS011;2737;52.386;9.980;2023-02-22T13:30:23;11.70;;;6.03;;
5428;SDS011;2737;52.386;9.980;2023-02-22T13:35:57;11.30;;;7.60;;
5428;SDS011;2737;52.386;9.980;2023-02-22T13:41:52;14.73;;;7.40;;
5428;SDS011;2737;52.386;9.980;2023-02-22T13:44:31;16.50;;;7.50;;
5428;SDS011;2737;52.386;9.980;2023-02-22T13:50:23;12.83;;;6.67;;
5428;SDS011;2737;52.386;9.980;2023-02-22T13:53:14;10.73;;;6.47;;
5428;SDS011;2737;52.386;9.980;2023-02-22T13:55:46;13.50;;;6.80;;
5428;SDS011;2737;52.386;9.980;2023-02-22T13:58:18;12.93;;;6.63;;
5428;SDS011;2737;52.386;9.980;2023-02-22T14:00:46;14.70;;;7.40;;
5428;SDS011;2737;52.386;9.980;2023-02-22T14:03:27;13.20;;;7.10;;
5428;SDS011;2737;52.386;9.980;2023-02-22T14:06:00;12.60;;;6.10;;
5428;SDS011;2737;52.386;9.980;2023-02-22T14:08:41;11.23;;;6.27;;
5428;SDS011;2737;52.386;9.980;2023-02-22T14:14:17;16.13;;;6.30;;
5428;SDS011;2737;52.386;9.980;2023-02-22T14:17:14;11.67;;;6.07;;
5428;SDS011;2737;52.386;9.980;2023-02-22T14:19:59;12.00;;;6.43;;
5428;SDS011;2737;52.386;9.980;2023-02-22T14:22:38;13.07;;;6.30;;
5428;SDS011;2737;52.386;9.980;2023-02-22T14:25:13;12.53;;;6.40;;
5428;SDS011;2737;52.386;9.980;2023-02-22T14:27:59;11.37;;;6.10;;
5428;SDS011;2737;52.386;9.980;2023-02-22T14:30:29;11.77;;;6.33;;
5428;SDS011;2737;52.386;9.980;2023-02-22T14:32:59;11.50;;;6.43;;
5428;SDS011;2737;52.386;9.980;2023-02-22T14:35:28;13.00;;;7.03;;
5428;SDS011;2737;52.386;9.980;2023-02-22T14:38:02;13.00;;;7.03;;
5428;SDS011;2737;52.386;9.980;2023-02-22T14:40:33;17.40;;;7.50;;
5428;SDS011;2737;52.386;9.980;2023-02-22T14:43:03;9.63;;;5.70;;
5428;SDS011;2737;52.386;9.980;2023-02-22T14:45:38;13.87;;;6.93;;
5428;SDS011;2737;52.386;9.980;2023-02-22T14:48:14;10.47;;;6.57;;
5428;SDS011;2737;52.386;9.980;2023-02-22T14:50:50;10.60;;;5.97;;
5428;SDS011;2737;52.386;9.980;2023-02-22T14:53:22;12.90;;;6.47;;
5428;SDS011;2737;52.386;9.980;2023-02-22T14:55:55;10.90;;;6.03;;
5428;SDS011;2737;52.386;9.980;2023-02-22T14:58:28;15.63;;;7.27;;
5428;SDS011;2737;52.386;9.980;2023-02-22T15:01:16;11.33;;;6.37;;
5428;SDS011;2737;52.386;9.980;2023-02-22T15:03:49;13.43;;;6.30;;
5428;SDS011;2737;52.386;9.980;2023-02-22T15:06:22;12.83;;;6.90;;
5428;SDS011;2737;52.386;9.980;2023-02-22T15:09:03;13.40;;;6.67;;
5428;SDS011;2737;52.386;9.980;2023-02-22T15:11:33;15.83;;;7.37;;
5428;SDS011;2737;52.386;9.980;2023-02-22T15:14:00;18.07;;;7.43;;
5428;SDS011;2737;52.386;9.980;2023-02-22T15:16:30;11.50;;;6.90;;
5428;SDS011;2737;52.386;9.980;2023-02-22T15:18:59;13.90;;;7.03;;
5428;SDS011;2737;52.386;9.980;2023-02-22T15:21:31;13.87;;;7.07;;
5428;SDS011;2737;52.386;9.980;2023-02-22T15:24:00;20.30;;;6.63;;
5428;SDS011;2737;52.386;9.980;2023-02-22T15:26:30;12.10;;;6.80;;
5428;SDS011;2737;52.386;9.980;2023-02-22T15:29:00;19.17;;;6.80;;
5428;SDS011;2737;52.386;9.980;2023-02-22T15:31:34;12.33;;;6.63;;
5428;SDS011;2737;52.386;9.980;2023-02-22T15:34:09;12.17;;;6.43;;
5428;SDS011;2737;52.386;9.980;2023-02-22T15:36:46;11.43;;;6.20;;
5428;SDS011;2737;52.386;9.980;2023-02-22T15:39:19;15.37;;;7.00;;